Time;durP1;ratioP1;P1;durP2;ratioP2;P2;SDS_P1;SDS_P2;PMS_P1;PMS_P2;Temp;Humidity;BMP_temperature;BMP_pressure;BME280_temperature;BME280_humidity;BME280_pressure;Samples;Min_cycle;Max_cycle;Signal;HPM_P1;HPM_P2
2020/12/29 00:00:01;;;;;;;4.28;3.13;;;3.20;24.40;;;;;;5068735;28;20044;-73
2020/12/29 00:02:29;;;;;;;3.58;2.63;;;3.20;24.60;;;;;;5070394;28;20047;-73
2020/12/29 00:04:56;;;;;;;4.05;2.45;;;3.10;24.70;;;;;;5066210;28;20127;-75
2020/12/29 00:07:23;;;;;;;4.43;3.08;;;3.20;24.10;;;;;;5071778;28;20411;-73
2020/12/29 00:09:49;;;;;;;4.38;2.42;;;3.20;24.60;;;;;;5069168;28;20045;-73
2020/12/29 00:12:16;;;;;;;3.30;2.13;;;3.30;23.70;;;;;;5070702;28;20060;-72
2020/12/29 00:14:43;;;;;;;4.97;2.47;;;3.30;22.80;;;;;;5066026;28;20063;-72
2020/12/29 00:17:10;;;;;;;4.47;2.63;;;3.30;23.00;;;;;;5070139;28;20055;-73
2020/12/29 00:19:38;;;;;;;3.60;2.20;;;3.40;23.20;;;;;;5067211;28;20529;-72
2020/12/29 00:22:05;;;;;;;4.10;2.03;;;3.30;24.10;;;;;;5070821;28;20051;-72
2020/12/29 00:24:31;;;;;;;3.25;2.08;;;3.30;24.00;;;;;;5067010;28;20472;-72
2020/12/29 00:27:03;;;;;;;4.80;2.00;;;3.30;25.30;;;;;;5070929;28;20095;-72
2020/12/29 00:29:30;;;;;;;2.30;1.50;;;3.30;26.80;;;;;;5069198;28;20048;-73
2020/12/29 00:32:01;;;;;;;3.05;1.58;;;3.20;27.40;;;;;;5070543;28;20114;-73
2020/12/29 00:34:27;;;;;;;2.58;1.50;;;3.10;28.50;;;;;;5066030;28;20127;-73
2020/12/29 00:36:55;;;;;;;2.50;1.30;;;3.10;30.00;;;;;;5071158;28;20048;-73
2020/12/29 00:39:22;;;;;;;1.42;1.00;;;3.10;30.70;;;;;;5068570;28;20052;-73
2020/12/29 00:41:49;;;;;;;2.03;1.08;;;3.10;31.10;;;;;;5067475;28;20052;-73
2020/12/29 00:44:16;;;;;;;1.77;1.00;;;3.10;32.30;;;;;;5066363;28;20056;-73
2020/12/29 00:46:42;;;;;;;5.20;2.33;;;3.00;32.90;;;;;;5069231;28;20414;-73
2020/12/29 00:49:09;;;;;;;2.47;1.05;;;3.00;34.30;;;;;;5068644;28;20040;-73
2020/12/29 00:51:36;;;;;;;1.70;1.10;;;3.00;34.70;;;;;;5068575;28;20049;-73
2020/12/29 00:54:04;;;;;;;1.45;1.00;;;2.90;35.20;;;;;;5068265;28;20055;-73
2020/12/29 00:56:31;;;;;;;1.52;1.00;;;2.90;35.80;;;;;;5066489;28;20048;-73
2020/12/29 00:58:57;;;;;;;1.33;0.80;;;2.90;36.40;;;;;;5068915;28;20102;-73
2020/12/29 01:01:24;;;;;;;1.00;0.90;;;2.90;36.30;;;;;;5068713;28;20056;-73
2020/12/29 01:03:51;;;;;;;2.25;0.88;;;2.90;36.60;;;;;;5068441;28;20047;-73
2020/12/29 01:06:25;;;;;;;1.70;0.80;;;3.00;36.40;;;;;;5067229;28;20050;-74
2020/12/29 01:08:52;;;;;;;2.22;0.77;;;3.00;36.30;;;;;;5068148;28;20052;-73
2020/12/29 01:11:32;;;;;;;1.10;0.77;;;3.10;36.40;;;;;;5068090;28;20045;-73
2020/12/29 01:13:59;;;;;;;1.23;0.70;;;3.10;36.20;;;;;;5066295;28;20044;-73
2020/12/29 01:16:26;;;;;;;1.35;0.75;;;3.10;35.90;;;;;;5066701;28;20653;-73
2020/12/29 01:18:53;;;;;;;1.02;0.50;;;3.10;36.40;;;;;;5068318;28;20052;-74
2020/12/29 01:21:19;;;;;;;1.10;0.50;;;3.20;35.50;;;;;;5068925;28;20044;-73
2020/12/29 01:23:46;;;;;;;1.27;0.60;;;3.40;34.40;;;;;;5067702;28;20056;-73
2020/12/29 01:26:21;;;;;;;0.98;0.60;;;3.40;35.30;;;;;;5066982;28;20528;-73
2020/12/29 01:28:49;;;;;;;0.70;0.40;;;3.40;37.30;;;;;;5065391;28;20581;-73
2020/12/29 01:31:23;;;;;;;0.60;0.50;;;3.40;38.70;;;;;;5066352;28;20478;-74
2020/12/29 01:33:50;;;;;;;0.88;0.60;;;3.40;39.40;;;;;;5066913;28;20547;-73
2020/12/29 01:36:17;;;;;;;0.57;0.57;;;3.40;39.90;;;;;;5066526;28;20045;-73
2020/12/29 01:38:44;;;;;;;0.90;0.60;;;3.40;41.10;;;;;;5066492;28;20066;-73
2020/12/29 01:41:11;;;;;;;0.55;0.55;;;3.50;42.00;;;;;;5066894;28;20068;-73
2020/12/29 01:43:38;;;;;;;0.80;0.70;;;3.40;43.60;;;;;;5067529;28;20060;-73
2020/12/29 01:46:05;;;;;;;1.00;0.50;;;3.40;44.90;;;;;;5065744;28;20131;-74
2020/12/29 01:48:33;;;;;;;0.73;0.50;;;3.40;44.90;;;;;;5066756;28;20053;-73
2020/12/29 01:51:00;;;;;;;1.35;0.60;;;3.40;45.10;;;;;;5066549;28;20136;-73
2020/12/29 01:53:26;;;;;;;1.02;0.70;;;3.30;47.00;;;;;;5067560;28;20060;-73
2020/12/29 01:55:54;;;;;;;0.98;0.65;;;3.30;48.30;;;;;;5065909;28;20052;-73
2020/12/29 01:58:21;;;;;;;1.00;0.73;;;3.30;49.20;;;;;;5064786;28;20054;-72
2020/12/29 02:00:48;;;;;;;1.77;0.70;;;3.30;50.00;;;;;;5067142;28;20052;-72
2020/12/29 02:03:16;;;;;;;0.80;0.75;;;3.20;52.80;;;;;;5068383;28;20064;-73
2020/12/29 02:05:47;;;;;;;1.42;0.70;;;3.20;52.80;;;;;;5064969;28;20044;-73
2020/12/29 02:08:15;;;;;;;1.50;0.85;;;3.30;52.90;;;;;;5065885;28;20067;-74
2020/12/29 02:10:44;;;;;;;1.42;0.70;;;3.30;52.90;;;;;;5066978;28;20731;-72
2020/12/29 02:13:10;;;;;;;1.02;0.70;;;3.20;53.10;;;;;;5067252;28;20048;-72
2020/12/29 02:15:37;;;;;;;1.00;0.77;;;3.20;54.10;;;;;;5063306;28;20071;-73
2020/12/29 02:18:04;;;;;;;3.30;0.75;;;3.30;54.10;;;;;;5067001;28;20418;-73
2020/12/29 02:20:32;;;;;;;1.60;0.98;;;3.20;53.30;;;;;;5067473;28;20056;-73
2020/12/29 02:22:59;;;;;;;0.93;0.60;;;3.20;54.60;;;;;;5066920;28;20036;-73
2020/12/29 02:25:29;;;;;;;0.85;0.75;;;3.20;55.30;;;;;;5063948;28;20048;-74
2020/12/29 02:27:57;;;;;;;0.80;0.70;;;3.30;55.40;;;;;;5066923;28;20055;-73
2020/12/29 02:30:24;;;;;;;2.47;0.80;;;3.30;55.20;;;;;;5066093;28;20502;-72
2020/12/29 02:32:51;;;;;;;3.15;0.70;;;3.30;53.80;;;;;;5068790;28;20040;-72
2020/12/29 02:35:18;;;;;;;0.60;0.50;;;3.40;54.50;;;;;;5063643;28;20041;-72
2020/12/29 02:37:45;;;;;;;2.10;0.73;;;3.40;54.80;;;;;;5068538;28;20072;-73
2020/12/29 02:40:13;;;;;;;1.25;0.80;;;3.40;55.10;;;;;;5065337;28;20048;-73
2020/12/29 02:42:39;;;;;;;2.33;0.82;;;3.40;54.10;;;;;;5067723;28;20044;-72
2020/12/29 02:45:06;;;;;;;1.40;0.63;;;3.40;54.20;;;;;;5064908;28;20040;-73
2020/12/29 02:47:34;;;;;;;0.80;0.70;;;3.40;55.40;;;;;;5072996;28;20052;-72
2020/12/29 02:50:01;;;;;;;1.17;0.60;;;3.40;55.40;;;;;;5069930;28;20518;-73
2020/12/29 02:52:27;;;;;;;4.15;0.80;;;3.40;55.60;;;;;;5072907;28;20094;-73
2020/12/29 02:54:54;;;;;;;1.75;0.95;;;3.50;55.60;;;;;;5067494;28;20067;-72
2020/12/29 02:57:22;;;;;;;0.82;0.57;;;3.50;54.60;;;;;;5072333;28;20046;-73
2020/12/29 02:59:49;;;;;;;0.55;0.50;;;3.60;51.90;;;;;;5068074;28;20131;-73
2020/12/29 03:02:15;;;;;;;0.90;0.50;;;3.50;50.90;;;;;;5072734;28;20044;-73
2020/12/29 03:04:42;;;;;;;0.90;0.60;;;3.50;51.70;;;;;;5067087;28;20053;-73
2020/12/29 03:07:10;;;;;;;0.90;0.60;;;3.50;52.50;;;;;;5070579;28;20040;-73
2020/12/29 03:09:37;;;;;;;1.63;0.70;;;3.40;52.90;;;;;;5064282;28;20068;-73
2020/12/29 03:12:04;;;;;;;1.70;0.70;;;3.30;52.90;;;;;;5067682;28;20044;-73
2020/12/29 03:14:32;;;;;;;0.70;0.50;;;3.30;52.90;;;;;;5068227;28;20136;-73
2020/12/29 03:16:59;;;;;;;2.05;0.68;;;3.20;52.80;;;;;;5071387;28;20520;-73
2020/12/29 03:19:26;;;;;;;0.77;0.55;;;3.30;52.90;;;;;;5069979;28;20049;-73
2020/12/29 03:21:53;;;;;;;1.30;0.47;;;3.30;52.90;;;;;;5071475;28;20040;-72
2020/12/29 03:24:19;;;;;;;3.78;0.80;;;3.30;51.40;;;;;;5067152;28;20049;-73
2020/12/29 03:26:46;;;;;;;0.80;0.60;;;3.30;52.30;;;;;;5068857;28;20048;-73
2020/12/29 03:29:13;;;;;;;1.02;0.47;;;3.40;51.70;;;;;;5068941;28;20044;-73
2020/12/29 03:31:43;;;;;;;0.65;0.40;;;3.40;50.50;;;;;;5070615;28;20040;-73
2020/12/29 03:34:16;;;;;;;1.13;0.52;;;3.40;50.10;;;;;;5068208;28;20063;-74
2020/12/29 03:36:42;;;;;;;0.43;0.40;;;3.40;50.70;;;;;;5069038;28;20052;-74
2020/12/29 03:39:09;;;;;;;1.38;0.40;;;3.40;51.40;;;;;;5067639;28;20422;-73
2020/12/29 03:41:37;;;;;;;1.15;0.30;;;3.40;52.00;;;;;;5069655;28;20047;-73
2020/12/29 03:44:04;;;;;;;0.47;0.35;;;3.40;51.90;;;;;;5071350;28;20044;-72
2020/12/29 03:46:31;;;;;;;1.67;0.50;;;3.40;52.20;;;;;;5071523;28;20513;-73
2020/12/29 03:48:58;;;;;;;0.40;0.30;;;3.40;51.20;;;;;;5072266;28;20049;-72
2020/12/29 03:51:25;;;;;;;0.47;0.30;;;3.40;52.00;;;;;;5068692;28;20506;-72
2020/12/29 03:53:53;;;;;;;0.50;0.32;;;3.40;52.50;;;;;;5072436;28;20061;-69
2020/12/29 03:56:20;;;;;;;0.70;0.30;;;3.40;51.70;;;;;;5071155;28;20392;-71
2020/12/29 03:58:46;;;;;;;0.80;0.35;;;3.50;50.20;;;;;;5072216;28;20053;-71
2020/12/29 04:01:13;;;;;;;0.77;0.30;;;3.50;50.30;;;;;;5070117;28;20045;-72
2020/12/29 04:03:43;;;;;;;0.28;0.20;;;3.50;50.90;;;;;;5072405;28;20056;-71
2020/12/29 04:06:11;;;;;;;0.30;0.22;;;3.50;51.20;;;;;;5070980;28;20406;-71
2020/12/29 04:08:38;;;;;;;0.73;0.30;;;3.50;52.10;;;;;;5072150;28;20102;-71
2020/12/29 04:11:05;;;;;;;0.50;0.20;;;3.50;50.50;;;;;;5073047;28;20052;-72
2020/12/29 04:13:46;;;;;;;0.70;0.38;;;3.40;50.90;;;;;;5071582;28;20060;-72
2020/12/29 04:16:13;;;;;;;2.08;1.02;;;3.50;50.70;;;;;;5071221;28;20079;-71
2020/12/29 04:18:41;;;;;;;1.17;0.70;;;3.50;50.40;;;;;;5071920;28;20052;-71
2020/12/29 04:21:11;;;;;;;0.98;0.40;;;3.50;49.80;;;;;;5072791;28;20507;-72
2020/12/29 04:23:39;;;;;;;1.65;0.30;;;3.50;49.60;;;;;;5071529;28;20052;-72
2020/12/29 04:26:10;;;;;;;0.80;0.20;;;3.60;46.90;;;;;;5070729;28;20082;-74
2020/12/29 04:28:37;;;;;;;0.43;0.25;;;3.60;46.30;;;;;;5071696;28;20123;-72
2020/12/29 04:31:04;;;;;;;0.50;0.28;;;3.70;45.20;;;;;;5072521;28;20048;-72
2020/12/29 04:33:31;;;;;;;0.50;0.40;;;3.70;45.20;;;;;;5071703;28;20044;-72
2020/12/29 04:35:58;;;;;;;0.40;0.30;;;3.60;46.40;;;;;;5070283;28;20048;-72
2020/12/29 04:38:24;;;;;;;1.55;0.43;;;3.60;47.20;;;;;;5070659;28;20044;-70
2020/12/29 04:40:54;;;;;;;0.10;0.10;;;3.50;47.80;;;;;;5072344;28;20060;-71
2020/12/29 04:43:21;;;;;;;0.20;0.15;;;3.50;48.30;;;;;;5071131;28;20075;-72
2020/12/29 04:45:50;;;;;;;0.70;0.20;;;3.50;47.00;;;;;;5069020;28;20060;-71
2020/12/29 04:48:17;;;;;;;1.15;0.40;;;3.50;47.10;;;;;;5070465;28;20064;-74
2020/12/29 04:50:46;;;;;;;2.05;0.57;;;3.50;47.70;;;;;;5070611;28;20071;-71
2020/12/29 04:53:15;;;;;;;1.15;0.40;;;3.40;47.80;;;;;;5071340;28;20525;-73
2020/12/29 04:55:44;;;;;;;2.25;0.52;;;3.40;48.30;;;;;;5068571;28;20052;-71
2020/12/29 04:58:17;;;;;;;1.10;0.30;;;3.40;48.30;;;;;;5068711;28;20066;-71
2020/12/29 05:00:46;;;;;;;0.80;0.30;;;3.40;47.90;;;;;;5072096;28;20394;-71
2020/12/29 05:03:13;;;;;;;1.48;0.47;;;3.50;48.00;;;;;;5070782;28;20045;-73
2020/12/29 05:05:39;;;;;;;3.13;0.30;;;3.50;46.50;;;;;;5067849;28;20052;-71
2020/12/29 05:08:06;;;;;;;1.90;0.50;;;3.60;45.10;;;;;;5068048;28;20838;-71
2020/12/29 05:10:33;;;;;;;1.05;0.30;;;3.60;45.10;;;;;;5070967;28;20482;-72
2020/12/29 05:13:00;;;;;;;1.48;0.40;;;3.70;43.30;;;;;;5071266;28;20049;-72
2020/12/29 05:15:28;;;;;;;0.47;0.22;;;3.70;42.40;;;;;;5066953;28;20558;-71
2020/12/29 05:17:54;;;;;;;0.65;0.30;;;3.80;40.70;;;;;;5069075;28;20047;-75
2020/12/29 05:20:33;;;;;;;4.03;0.50;;;3.80;40.30;;;;;;5069663;28;20052;-72
2020/12/29 05:23:00;;;;;;;0.45;0.35;;;3.90;40.20;;;;;;5071327;28;20049;-72
2020/12/29 05:25:27;;;;;;;1.73;0.38;;;3.80;41.60;;;;;;5067283;28;20052;-71
2020/12/29 05:27:54;;;;;;;0.63;0.25;;;3.80;42.10;;;;;;5069616;28;20071;-72
2020/12/29 05:30:22;;;;;;;2.10;0.45;;;3.70;41.80;;;;;;5070321;28;20072;-72
2020/12/29 05:32:49;;;;;;;3.10;0.40;;;3.70;42.60;;;;;;5066645;28;20041;-71
2020/12/29 05:35:16;;;;;;;0.52;0.22;;;3.80;41.50;;;;;;5064691;28;20052;-71
2020/12/29 05:37:43;;;;;;;2.65;0.40;;;3.80;40.80;;;;;;5070446;28;20075;-71
2020/12/29 05:40:27;;;;;;;3.75;0.60;;;3.80;41.00;;;;;;5068877;28;20063;-74
2020/12/29 05:42:55;;;;;;;3.30;0.60;;;3.80;41.20;;;;;;5068451;28;20044;-72
2020/12/29 05:45:24;;;;;;;0.95;0.40;;;3.80;40.40;;;;;;5067381;28;20053;-72
2020/12/29 05:47:56;;;;;;;1.38;0.40;;;3.80;39.90;;;;;;5069584;28;20056;-71
2020/12/29 05:50:24;;;;;;;0.77;0.30;;;3.90;39.80;;;;;;5069956;28;20131;-71
2020/12/29 05:52:53;;;;;;;1.25;0.30;;;3.90;37.80;;;;;;5070199;28;20135;-73
2020/12/29 05:55:22;;;;;;;0.60;0.35;;;3.90;38.90;;;;;;5067146;28;20051;-71
2020/12/29 05:58:03;;;;;;;1.02;0.30;;;3.90;38.70;;;;;;5069738;28;20051;-73
2020/12/29 06:00:30;;;;;;;0.98;0.47;;;3.90;40.00;;;;;;5066523;28;20063;-71
2020/12/29 06:02:59;;;;;;;1.38;0.65;;;3.90;39.50;;;;;;5069686;28;20048;-72
2020/12/29 06:05:27;;;;;;;1.08;0.77;;;3.90;38.50;;;;;;5067702;28;20056;-70
2020/12/29 06:07:56;;;;;;;1.58;0.52;;;3.90;39.20;;;;;;5069246;28;20410;-72
2020/12/29 06:10:24;;;;;;;0.60;0.22;;;3.90;39.10;;;;;;5066642;28;20124;-74
2020/12/29 06:12:54;;;;;;;1.20;0.40;;;3.90;38.10;;;;;;5070671;28;20410;-72
2020/12/29 06:15:25;;;;;;;3.75;0.30;;;4.00;37.20;;;;;;5067678;28;20059;-71
2020/12/29 06:17:58;;;;;;;1.08;0.43;;;3.90;37.10;;;;;;5069614;28;20052;-76
2020/12/29 06:20:34;;;;;;;2.72;0.63;;;3.90;37.10;;;;;;5064677;28;20044;-73
2020/12/29 06:23:02;;;;;;;0.40;0.20;;;3.90;38.50;;;;;;5062219;28;20491;-72
2020/12/29 06:25:36;;;;;;;0.47;0.25;;;3.90;39.60;;;;;;5067491;28;20049;-71
2020/12/29 06:28:05;;;;;;;0.55;0.40;;;3.80;39.90;;;;;;5068958;28;20427;-73
2020/12/29 06:30:34;;;;;;;2.25;0.30;;;3.90;40.00;;;;;;5070144;28;20064;-71
2020/12/29 06:33:04;;;;;;;1.33;0.30;;;3.90;39.90;;;;;;5070159;28;20127;-71
2020/12/29 06:35:31;;;;;;;0.43;0.22;;;3.90;39.90;;;;;;5067617;28;20086;-71
2020/12/29 06:38:06;;;;;;;0.40;0.30;;;3.90;40.00;;;;;;5069094;28;20040;-71
2020/12/29 06:40:34;;;;;;;3.15;0.65;;;3.90;39.60;;;;;;5070295;28;20067;-71
2020/12/29 06:43:06;;;;;;;0.70;0.30;;;3.90;39.50;;;;;;5069785;28;20127;-71
2020/12/29 06:45:35;;;;;;;1.25;0.30;;;3.90;40.10;;;;;;5068178;28;20057;-71
2020/12/29 06:48:15;;;;;;;1.50;0.40;;;3.90;40.90;;;;;;5069845;28;20052;-70
2020/12/29 06:50:42;;;;;;;0.20;0.20;;;3.90;40.70;;;;;;5066588;28;20151;-70
2020/12/29 06:53:09;;;;;;;0.38;0.30;;;3.60;40.00;;;;;;5069742;28;20127;-71
2020/12/29 06:55:37;;;;;;;1.08;0.43;;;3.20;44.80;;;;;;5067364;28;20059;-72
2020/12/29 06:58:05;;;;;;;0.50;0.30;;;3.10;46.60;;;;;;5064885;28;20048;-73
2020/12/29 07:00:34;;;;;;;1.30;0.60;;;3.10;48.10;;;;;;5070090;28;20710;-71
2020/12/29 07:03:02;;;;;;;1.42;0.50;;;3.00;48.00;;;;;;5069943;28;20048;-71
2020/12/29 07:05:30;;;;;;;0.30;0.30;;;2.90;48.80;;;;;;5068118;28;20087;-71
2020/12/29 07:08:01;;;;;;;1.40;0.38;;;2.90;49.30;;;;;;5068364;28;20666;-71
2020/12/29 07:10:35;;;;;;;0.55;0.35;;;2.90;49.90;;;;;;5069962;28;20414;-74
2020/12/29 07:13:11;;;;;;;0.70;0.40;;;2.90;51.00;;;;;;5065492;28;20405;-72
2020/12/29 07:15:46;;;;;;;0.95;0.40;;;2.80;50.60;;;;;;5067817;28;20064;-71
2020/12/29 07:18:17;;;;;;;;;;;2.80;50.90;;;;;;5069426;28;20067;-73
2020/12/29 07:20:47;;;;;;;0.30;0.30;;;2.70;50.80;;;;;;5070097;28;19928;-72
2020/12/29 07:23:16;;;;;;;0.47;0.38;;;2.60;52.30;;;;;;5069759;28;20044;-72
2020/12/29 07:25:46;;;;;;;0.75;0.50;;;2.70;53.40;;;;;;5066602;28;20056;-71
2020/12/29 07:28:13;;;;;;;1.35;0.50;;;2.50;53.90;;;;;;5069060;28;20171;-71
2020/12/29 07:30:41;;;;;;;0.70;0.50;;;2.50;53.10;;;;;;5069707;28;20076;-72
2020/12/29 07:33:09;;;;;;;0.93;0.40;;;2.50;52.60;;;;;;5072578;28;20050;-71
2020/12/29 07:35:38;;;;;;;1.17;0.75;;;2.40;54.40;;;;;;5069096;28;20044;-71
2020/12/29 07:38:11;;;;;;;0.63;0.50;;;2.50;56.00;;;;;;5071743;28;20048;-71
2020/12/29 07:40:38;;;;;;;0.53;0.47;;;2.50;55.70;;;;;;5068931;28;20410;-71
2020/12/29 07:43:05;;;;;;;2.97;0.57;;;2.50;56.10;;;;;;5073375;28;20051;-72
2020/12/29 07:45:33;;;;;;;3.88;0.70;;;2.30;56.00;;;;;;5068997;28;20481;-70
2020/12/29 07:48:00;;;;;;;2.40;0.65;;;2.30;56.60;;;;;;5070822;28;20052;-72
2020/12/29 07:50:27;;;;;;;0.90;0.80;;;2.40;58.30;;;;;;5068013;28;20056;-70
2020/12/29 07:53:01;;;;;;;3.17;1.35;;;2.30;59.10;;;;;;5071180;28;20049;-72
2020/12/29 07:55:28;;;;;;;2.25;0.95;;;2.40;59.50;;;;;;5068997;28;20093;-71
2020/12/29 07:57:56;;;;;;;0.98;0.68;;;2.30;58.90;;;;;;5070423;28;20494;-74
2020/12/29 08:00:23;;;;;;;1.30;0.52;;;2.30;58.20;;;;;;5071302;28;20104;-72
2020/12/29 08:02:51;;;;;;;1.08;0.80;;;2.40;59.90;;;;;;5071608;28;20677;-71
2020/12/29 08:05:20;;;;;;;0.88;0.55;;;2.40;60.60;;;;;;5062918;28;20045;-73
2020/12/29 08:07:54;;;;;;;4.80;0.65;;;2.40;59.90;;;;;;5066354;28;20052;-74
2020/12/29 08:10:23;;;;;;;1.40;0.77;;;2.50;60.80;;;;;;5068240;28;20064;-73
2020/12/29 08:12:53;;;;;;;2.28;1.00;;;2.40;59.70;;;;;;5069634;28;20047;-72
2020/12/29 08:15:25;;;;;;;1.02;0.63;;;2.40;60.90;;;;;;5063984;28;20464;-73
2020/12/29 08:18:01;;;;;;;3.40;0.65;;;2.50;62.60;;;;;;5067132;28;20398;-71
2020/12/29 08:20:27;;;;;;;1.85;0.50;;;2.50;62.40;;;;;;5067411;28;20052;-71
2020/12/29 08:22:54;;;;;;;1.58;0.75;;;2.60;62.70;;;;;;5071747;28;20048;-70
2020/12/29 08:25:22;;;;;;;1.30;0.60;;;2.60;62.50;;;;;;5069338;28;20418;-71
2020/12/29 08:27:49;;;;;;;2.20;0.80;;;2.80;63.80;;;;;;5068662;28;20050;-73
2020/12/29 08:30:16;;;;;;;16.85;9.05;;;2.80;64.30;;;;;;5068822;28;20049;-73
2020/12/29 08:32:45;;;;;;;2.15;1.08;;;2.90;64.40;;;;;;5070041;28;20098;-72
2020/12/29 08:35:13;;;;;;;1.48;1.08;;;2.80;64.20;;;;;;5064874;28;20702;-72
2020/12/29 08:37:56;;;;;;;1.67;0.70;;;2.90;64.40;;;;;;5068333;28;20044;-72
2020/12/29 08:40:28;;;;;;;1.80;0.70;;;2.80;64.20;;;;;;5068055;28;20463;-72
2020/12/29 08:42:58;;;;;;;1.20;0.70;;;2.80;63.60;;;;;;5068750;28;20055;-73
2020/12/29 08:45:29;;;;;;;2.17;0.83;;;2.90;64.00;;;;;;5064834;28;20131;-71
2020/12/29 08:47:57;;;;;;;1.90;0.90;;;3.00;64.50;;;;;;5066471;28;20410;-71
2020/12/29 08:50:26;;;;;;;1.83;0.80;;;3.00;63.90;;;;;;5066488;28;20048;-72
2020/12/29 08:53:02;;;;;;;3.63;1.30;;;3.00;63.90;;;;;;5069840;28;20048;-71
2020/12/29 08:55:31;;;;;;;3.92;1.40;;;3.00;64.50;;;;;;5063972;28;20048;-73
2020/12/29 08:57:58;;;;;;;3.90;1.30;;;3.10;64.60;;;;;;5066095;28;20044;-73
2020/12/29 09:00:26;;;;;;;2.22;1.10;;;3.10;64.60;;;;;;5068167;28;20048;-72
2020/12/29 09:02:53;;;;;;;1.65;0.90;;;3.10;64.50;;;;;;5068594;28;20055;-72
2020/12/29 09:05:24;;;;;;;1.83;0.98;;;3.10;64.60;;;;;;5065795;28;20055;-72
2020/12/29 09:07:51;;;;;;;1.38;0.85;;;3.10;64.60;;;;;;5068878;28;20048;-73
2020/12/29 09:10:19;;;;;;;1.55;1.02;;;3.20;64.70;;;;;;5066432;28;20049;-74
2020/12/29 09:12:47;;;;;;;2.92;1.20;;;3.20;64.80;;;;;;5069096;28;20040;-73
2020/12/29 09:15:24;;;;;;;2.35;0.75;;;3.20;64.20;;;;;;5064218;28;20048;-72
2020/12/29 09:17:56;;;;;;;2.80;1.23;;;3.20;64.60;;;;;;5067607;28;20063;-70
2020/12/29 09:20:26;;;;;;;1.55;0.70;;;3.30;64.80;;;;;;5067324;28;20048;-72
2020/12/29 09:22:58;;;;;;;3.30;1.02;;;3.30;64.60;;;;;;5067229;28;20059;-71
2020/12/29 09:25:28;;;;;;;3.28;0.70;;;3.40;64.30;;;;;;5063465;28;20049;-72
2020/12/29 09:28:14;;;;;;;1.58;0.60;;;3.50;63.20;;;;;;5065006;28;20044;-72
2020/12/29 09:30:42;;;;;;;1.00;0.70;;;3.60;60.90;;;;;;5065800;28;20109;-71
2020/12/29 09:33:09;;;;;;;1.83;1.02;;;3.60;60.90;;;;;;5068029;28;20060;-72
2020/12/29 09:35:36;;;;;;;1.33;0.77;;;3.60;61.00;;;;;;5064547;28;20049;-72
2020/12/29 09:38:03;;;;;;;3.08;0.70;;;3.60;60.50;;;;;;5066034;28;20532;-71
2020/12/29 09:40:50;;;;;;;2.78;0.95;;;3.70;61.00;;;;;;5067214;28;20059;-71
2020/12/29 09:43:18;;;;;;;2.83;1.40;;;3.70;59.90;;;;;;5066161;28;20067;-71
2020/12/29 09:45:46;;;;;;;1.10;0.60;;;3.80;59.90;;;;;;5062753;28;20044;-73
2020/12/29 09:48:13;;;;;;;4.32;1.20;;;3.70;59.00;;;;;;5063249;28;20060;-73
2020/12/29 09:50:40;;;;;;;3.88;0.95;;;3.70;59.30;;;;;;5067032;28;20055;-71
2020/12/29 09:53:07;;;;;;;3.80;1.23;;;3.70;59.90;;;;;;5069390;28;20498;-72
2020/12/29 09:55:34;;;;;;;2.78;1.70;;;3.70;59.20;;;;;;5065523;28;20056;-71
2020/12/29 09:58:01;;;;;;;2.22;1.10;;;3.80;59.30;;;;;;5068194;28;20071;-72
2020/12/29 10:00:29;;;;;;;1.63;1.30;;;3.80;58.40;;;;;;5068142;28;20540;-74
2020/12/29 10:02:57;;;;;;;2.65;1.15;;;3.80;56.00;;;;;;5067838;28;20044;-72
2020/12/29 10:05:24;;;;;;;1.23;1.00;;;3.90;57.70;;;;;;5066123;28;20056;-71
2020/12/29 10:07:51;;;;;;;2.30;1.30;;;3.90;55.80;;;;;;5068686;28;20410;-72
2020/12/29 10:10:18;;;;;;;2.97;1.02;;;3.90;56.00;;;;;;5068046;28;20056;-71
2020/12/29 10:12:45;;;;;;;2.53;1.40;;;3.90;54.80;;;;;;5069015;28;20128;-71
2020/12/29 10:15:12;;;;;;;2.17;1.08;;;3.90;53.50;;;;;;5066848;28;20576;-73
2020/12/29 10:17:40;;;;;;;3.13;1.30;;;3.90;55.60;;;;;;5069108;28;20062;-71
2020/12/29 10:20:07;;;;;;;3.35;1.08;;;3.90;56.00;;;;;;5068670;28;20044;-71
2020/12/29 10:22:34;;;;;;;5.32;1.00;;;3.90;51.40;;;;;;5070241;28;20049;-71
2020/12/29 10:25:01;;;;;;;1.48;0.90;;;4.00;51.60;;;;;;5067442;28;20052;-71
2020/12/29 10:27:28;;;;;;;2.05;0.80;;;4.00;51.40;;;;;;5070197;28;20178;-71
2020/12/29 10:29:54;;;;;;;1.85;0.70;;;4.10;50.90;;;;;;5067777;28;20048;-71
2020/12/29 10:32:21;;;;;;;9.57;4.18;;;4.10;47.10;;;;;;5069859;28;20059;-72
2020/12/29 10:34:49;;;;;;;1.92;0.43;;;4.00;45.50;;;;;;5064053;28;20067;-71
2020/12/29 10:37:16;;;;;;;1.02;0.50;;;4.00;44.20;;;;;;5066214;28;20044;-72
2020/12/29 10:39:43;;;;;;;1.38;0.57;;;3.90;45.10;;;;;;5063105;28;20048;-72
2020/12/29 10:42:10;;;;;;;1.83;0.80;;;3.90;45.40;;;;;;5067815;28;20421;-72
2020/12/29 10:44:37;;;;;;;0.95;0.40;;;4.00;45.60;;;;;;5064154;28;20047;-72
2020/12/29 10:47:04;;;;;;;1.83;0.50;;;4.10;45.60;;;;;;5066518;28;20502;-71
2020/12/29 10:49:31;;;;;;;2.33;0.70;;;4.30;43.80;;;;;;5064972;28;20506;-71
2020/12/29 10:51:59;;;;;;;4.22;0.60;;;4.30;43.90;;;;;;5067719;28;20051;-71
2020/12/29 10:54:25;;;;;;;1.45;0.50;;;4.20;41.90;;;;;;5063981;28;20052;-72
2020/12/29 10:56:52;;;;;;;0.95;0.60;;;4.50;41.10;;;;;;5064887;28;20502;-73
2020/12/29 10:59:19;;;;;;;11.00;6.45;;;4.70;41.90;;;;;;5063003;28;20670;-72
2020/12/29 11:01:46;;;;;;;1.02;0.55;;;4.80;37.90;;;;;;5067929;28;20041;-72
2020/12/29 11:04:12;;;;;;;1.50;0.95;;;4.80;37.90;;;;;;5066283;28;20064;-73
2020/12/29 11:06:39;;;;;;;1.25;0.60;;;4.80;38.80;;;;;;5070020;28;20391;-75
2020/12/29 11:09:07;;;;;;;2.72;0.55;;;4.80;36.10;;;;;;5072066;28;20044;-70
2020/12/29 11:11:34;;;;;;;1.90;0.50;;;4.80;35.80;;;;;;5073451;28;20048;-72
2020/12/29 11:14:00;;;;;;;0.40;0.38;;;4.90;34.80;;;;;;5072511;28;20053;-70
2020/12/29 11:16:27;;;;;;;1.58;1.00;;;5.10;30.70;;;;;;5071931;28;20044;-72
2020/12/29 11:18:54;;;;;;;0.93;0.65;;;4.90;30.80;;;;;;5067379;28;20063;-70
2020/12/29 11:21:21;;;;;;;2.53;1.00;;;5.00;30.60;;;;;;5074096;28;20052;-71
2020/12/29 11:23:48;;;;;;;3.40;1.08;;;5.00;29.70;;;;;;5072635;28;20048;-71
2020/12/29 11:26:17;;;;;;;2.63;1.17;;;5.20;29.90;;;;;;5071060;28;20157;-72
2020/12/29 11:28:45;;;;;;;3.22;0.90;;;5.20;28.80;;;;;;5069097;28;20056;-74
2020/12/29 11:31:12;;;;;;;2.50;0.75;;;5.30;28.50;;;;;;5070901;28;20615;-73
2020/12/29 11:33:39;;;;;;;6.82;0.93;;;5.20;29.20;;;;;;5069018;28;20063;-73
2020/12/29 11:36:07;;;;;;;1.13;0.57;;;5.20;27.80;;;;;;5069211;28;20063;-74
2020/12/29 11:38:34;;;;;;;1.58;0.60;;;5.30;27.30;;;;;;5067387;28;20044;-72
2020/12/29 11:41:00;;;;;;;1.75;0.75;;;5.50;25.60;;;;;;5071718;28;20063;-73
2020/12/29 11:43:29;;;;;;;1.20;0.47;;;5.40;28.30;;;;;;5070894;28;20063;-73
2020/12/29 11:45:56;;;;;;;1.67;0.50;;;5.60;26.40;;;;;;5066829;28;20067;-71
2020/12/29 11:48:22;;;;;;;1.25;0.40;;;5.50;24.50;;;;;;5068714;28;20111;-75
2020/12/29 11:50:51;;;;;;;0.93;0.50;;;5.40;24.50;;;;;;5069127;28;20056;-76
2020/12/29 11:53:18;;;;;;;1.77;1.10;;;5.40;25.10;;;;;;5070521;28;20045;-74
2020/12/29 11:55:45;;;;;;;1.10;0.52;;;5.40;24.70;;;;;;5066398;28;20549;-74
2020/12/29 11:58:11;;;;;;;1.95;0.65;;;5.30;24.50;;;;;;5067915;28;20086;-73
2020/12/29 12:00:39;;;;;;;0.68;0.40;;;5.30;25.20;;;;;;5068693;28;20046;-73
2020/12/29 12:03:07;;;;;;;1.40;0.70;;;5.10;24.00;;;;;;5071455;28;20131;-73
2020/12/29 12:05:34;;;;;;;1.75;0.70;;;5.10;24.20;;;;;;5065432;28;20052;-72
2020/12/29 12:08:01;;;;;;;1.58;0.40;;;5.10;23.20;;;;;;5068559;28;20057;-74
2020/12/29 12:10:28;;;;;;;1.15;0.45;;;5.10;23.10;;;;;;5070644;28;20499;-73
2020/12/29 12:12:55;;;;;;;3.15;0.77;;;5.10;22.80;;;;;;5070178;28;20041;-72
2020/12/29 12:15:22;;;;;;;2.92;0.80;;;4.90;23.00;;;;;;5064646;28;20110;-73
2020/12/29 12:17:49;;;;;;;3.95;0.75;;;5.00;24.40;;;;;;5067442;28;20639;-70
2020/12/29 12:20:16;;;;;;;0.95;0.60;;;5.10;23.70;;;;;;5068957;28;20040;-74
2020/12/29 12:22:43;;;;;;;3.17;0.80;;;5.20;24.80;;;;;;5069914;28;20452;-71
2020/12/29 12:25:10;;;;;;;1.02;0.60;;;5.30;24.30;;;;;;5066651;28;20688;-73
2020/12/29 12:27:37;;;;;;;3.08;0.50;;;5.30;22.90;;;;;;5069422;28;20501;-73
2020/12/29 12:30:04;;;;;;;0.60;0.40;;;5.00;19.10;;;;;;5067527;28;20524;-74
2020/12/29 12:32:31;;;;;;;1.02;0.50;;;5.20;20.70;;;;;;5070571;28;20068;-73
2020/12/29 12:34:58;;;;;;;0.65;0.45;;;5.00;20.40;;;;;;5067204;28;20048;-73
2020/12/29 12:37:25;;;;;;;2.30;0.70;;;5.10;21.70;;;;;;5069749;28;20056;-73
2020/12/29 12:39:52;;;;;;;1.10;0.70;;;5.10;20.50;;;;;;5067596;28;20059;-70
2020/12/29 12:42:19;;;;;;;1.25;0.43;;;5.20;22.20;;;;;;5070595;28;20096;-72
2020/12/29 12:44:47;;;;;;;1.65;0.73;;;5.00;20.90;;;;;;5066925;28;20055;-73
2020/12/29 12:47:13;;;;;;;1.13;0.38;;;5.10;21.60;;;;;;5068902;28;20094;-73
2020/12/29 12:49:40;;;;;;;4.65;0.65;;;5.10;21.00;;;;;;5066220;28;20048;-73
2020/12/29 12:52:08;;;;;;;1.25;0.55;;;5.20;21.80;;;;;;5068885;28;20426;-73
2020/12/29 12:54:34;;;;;;;2.78;0.80;;;5.30;21.40;;;;;;5065027;28;20053;-71
2020/12/29 12:57:01;;;;;;;1.77;0.60;;;5.20;22.10;;;;;;5061628;28;20056;-73
2020/12/29 12:59:28;;;;;;;3.72;0.70;;;5.30;22.00;;;;;;5064421;28;20051;-73
2020/12/29 13:01:56;;;;;;;1.90;0.50;;;5.50;23.40;;;;;;5068944;28;20052;-73